createdAt,value
2023-02-12T00:00:26.654Z,8.64
2023-02-12T00:01:26.593Z,8.6
2023-02-12T00:02:26.804Z,8.6
2023-02-12T00:03:26.719Z,8.6
2023-02-12T00:04:26.489Z,8.56
2023-02-12T00:05:26.494Z,8.64
2023-02-12T00:06:26.427Z,8.56
2023-02-12T00:07:26.413Z,8.61
2023-02-12T00:08:26.367Z,8.61
2023-02-12T00:09:26.328Z,8.61
2023-02-12T00:10:26.404Z,8.64
2023-02-12T00:11:26.265Z,8.63
2023-02-12T00:12:26.250Z,8.64
2023-02-12T00:13:26.216Z,8.6
2023-02-12T00:14:26.174Z,8.63
2023-02-12T00:15:26.151Z,8.61
2023-02-12T00:16:26.256Z,8.67
2023-02-12T00:17:26.104Z,8.63
2023-02-12T00:18:26.047Z,8.6
2023-02-12T00:19:26.012Z,8.66
2023-02-12T00:20:25.993Z,8.6
2023-02-12T00:21:25.982Z,8.64
2023-02-12T00:22:25.916Z,8.6
2023-02-12T00:23:25.892Z,8.61
2023-02-12T00:24:25.873Z,8.7
2023-02-12T00:25:25.824Z,8.66
2023-02-12T00:26:25.836Z,8.58
2023-02-12T00:27:25.774Z,8.69
2023-02-12T00:28:25.924Z,8.63
2023-02-12T00:29:25.708Z,8.63
2023-02-12T00:30:25.771Z,8.61
2023-02-12T00:31:26.239Z,8.63
2023-02-12T00:32:25.637Z,8.67
2023-02-12T00:33:25.601Z,8.64
2023-02-12T00:34:25.546Z,8.64
2023-02-12T00:35:25.568Z,8.56
2023-02-12T00:36:25.496Z,8.63
2023-02-12T00:37:25.481Z,8.63
2023-02-12T00:38:25.436Z,8.61
2023-02-12T00:39:25.434Z,8.61
2023-02-12T00:40:25.370Z,8.64
2023-02-12T00:41:25.343Z,8.61
2023-02-12T00:42:25.346Z,8.64
2023-02-12T00:43:25.269Z,8.6
2023-02-12T00:44:25.231Z,8.56
2023-02-12T00:45:25.210Z,8.6
2023-02-12T00:46:25.512Z,8.58
2023-02-12T00:47:25.156Z,8.56
2023-02-12T00:48:25.161Z,8.46
2023-02-12T00:49:25.172Z,8.56
2023-02-12T00:50:25.058Z,8.45
2023-02-12T00:51:25.049Z,8.42
2023-02-12T00:52:24.974Z,8.44
2023-02-12T00:53:24.978Z,8.44
2023-02-12T00:54:24.928Z,8.51
2023-02-12T00:55:24.890Z,8.55
2023-02-12T00:56:24.628Z,8.46
2023-02-12T00:57:24.834Z,8.41
2023-02-12T00:58:24.928Z,8.42
2023-02-12T00:59:24.766Z,8.53
2023-02-12T01:00:24.739Z,8.42
2023-02-12T01:01:24.848Z,8.45
2023-02-12T01:02:24.689Z,8.51
2023-02-12T01:03:24.634Z,8.44
2023-02-12T01:04:24.628Z,8.53
2023-02-12T01:05:24.792Z,8.52
2023-02-12T01:06:24.541Z,8.45
2023-02-12T01:07:24.515Z,8.42
2023-02-12T01:08:24.490Z,8.52
2023-02-12T01:09:24.472Z,8.53
2023-02-12T01:10:24.421Z,8.53
2023-02-12T01:11:24.423Z,8.53
2023-02-12T01:12:24.396Z,8.48
2023-02-12T01:13:24.336Z,8.51
2023-02-12T01:14:24.341Z,8.51
2023-02-12T01:15:24.287Z,8.52
2023-02-12T01:16:24.385Z,8.53
2023-02-12T01:17:24.200Z,8.42
2023-02-12T01:18:24.170Z,8.42
2023-02-12T01:19:24.144Z,8.42
2023-02-12T01:20:24.165Z,8.48
2023-02-12T01:21:24.146Z,8.45
2023-02-12T01:22:24.053Z,8.45
2023-02-12T01:23:24.015Z,8.42
2023-02-12T01:24:24.000Z,8.48
2023-02-12T01:25:25.509Z,8.45
2023-02-12T01:26:23.983Z,8.46
2023-02-12T01:27:23.894Z,8.49
2023-02-12T01:28:23.997Z,8.42
2023-02-12T01:29:23.838Z,8.48
2023-02-12T01:30:23.859Z,8.46
2023-02-12T01:31:24.226Z,8.45
2023-02-12T01:32:23.833Z,8.52
2023-02-12T01:33:23.731Z,8.6
2023-02-12T01:34:23.696Z,8.52
2023-02-12T01:35:23.644Z,8.58
2023-02-12T01:36:23.643Z,8.6
2023-02-12T01:37:23.596Z,8.56
2023-02-12T01:38:23.580Z,8.55
2023-02-12T01:39:23.529Z,8.56
2023-02-12T01:40:23.491Z,8.63
2023-02-12T01:41:23.480Z,8.53
2023-02-12T01:42:23.432Z,8.42
2023-02-12T01:43:23.396Z,8.45
2023-02-12T01:44:23.581Z,8.45
2023-02-12T01:45:23.327Z,8.52
2023-02-12T01:46:23.505Z,8.44
2023-02-12T01:47:23.266Z,8.45
2023-02-12T01:48:23.225Z,8.44
2023-02-12T01:49:23.215Z,8.45
2023-02-12T01:50:23.189Z,8.45
2023-02-12T01:51:23.147Z,8.58
2023-02-12T01:52:23.145Z,8.38
2023-02-12T01:53:23.082Z,8.53
2023-02-12T01:54:23.055Z,8.52
2023-02-12T01:55:23.043Z,8.52
2023-02-12T01:56:22.997Z,8.49
2023-02-12T01:57:22.988Z,8.52
2023-02-12T01:58:22.923Z,8.46
2023-02-12T01:59:22.890Z,8.49
2023-02-12T02:00:22.884Z,8.45
2023-02-12T02:01:23.175Z,8.55
2023-02-12T02:02:22.833Z,8.45
2023-02-12T02:03:22.992Z,8.46
2023-02-12T02:04:22.758Z,8.46
2023-02-12T02:05:22.745Z,8.44
2023-02-12T02:06:22.695Z,8.49
2023-02-12T02:07:22.646Z,8.46
2023-02-12T02:08:22.402Z,8.55
2023-02-12T02:09:22.576Z,8.45
2023-02-12T02:10:22.558Z,8.6
2023-02-12T02:11:22.510Z,8.53
2023-02-12T02:12:22.499Z,8.52
2023-02-12T02:13:22.489Z,8.56
2023-02-12T02:14:22.417Z,8.46
2023-02-12T02:15:22.420Z,8.45
2023-02-12T02:16:22.507Z,8.49
2023-02-12T02:17:22.345Z,8.46
2023-02-12T02:18:22.332Z,8.45
2023-02-12T02:19:22.265Z,8.48
2023-02-12T02:20:22.249Z,8.55
2023-02-12T02:21:22.200Z,8.45
2023-02-12T02:22:22.175Z,8.49
2023-02-12T02:23:22.160Z,8.45
2023-02-12T02:24:22.145Z,8.46
2023-02-12T02:25:22.084Z,8.46
2023-02-12T02:26:22.031Z,8.52
2023-02-12T02:27:22.027Z,8.41
2023-02-12T02:28:22.204Z,8.46
2023-02-12T02:29:21.962Z,8.46
2023-02-12T02:30:21.914Z,8.45
2023-02-12T02:31:22.353Z,8.45
2023-02-12T02:32:21.900Z,8.41
2023-02-12T02:33:21.829Z,8.44
2023-02-12T02:34:21.821Z,8.44
2023-02-12T02:35:21.762Z,8.44
2023-02-12T02:36:23.588Z,8.41
2023-02-12T02:37:21.714Z,8.45
2023-02-12T02:38:21.707Z,8.42
2023-02-12T02:39:21.634Z,8.38
2023-02-12T02:40:21.631Z,8.44
2023-02-12T02:41:21.580Z,8.38
2023-02-12T02:42:21.558Z,8.41
2023-02-12T02:43:21.508Z,8.44
2023-02-12T02:44:21.479Z,8.38
2023-02-12T02:45:21.460Z,8.45
2023-02-12T02:46:21.639Z,8.41
2023-02-12T02:47:21.417Z,8.42
2023-02-12T02:48:21.363Z,8.41
2023-02-12T02:49:21.325Z,8.44
2023-02-12T02:50:21.329Z,8.45
2023-02-12T02:51:21.364Z,8.46
2023-02-12T02:52:21.235Z,8.45
2023-02-12T02:53:21.218Z,8.44
2023-02-12T02:54:21.176Z,8.49
2023-02-12T02:55:21.140Z,8.48
2023-02-12T02:56:21.136Z,8.37
2023-02-12T02:57:21.080Z,8.44
2023-02-12T02:58:21.074Z,8.45
2023-02-12T02:59:21.008Z,8.31
2023-02-12T03:00:20.983Z,8.34
2023-02-12T03:01:21.271Z,8.41
2023-02-12T03:02:20.918Z,8.34
2023-02-12T03:03:21.081Z,8.31
2023-02-12T03:04:20.850Z,8.44
2023-02-12T03:05:20.828Z,8.37
2023-02-12T03:06:20.816Z,8.34
2023-02-12T03:07:20.769Z,8.33
2023-02-12T03:08:20.729Z,8.37
2023-02-12T03:09:20.693Z,8.33
2023-02-12T03:10:20.672Z,8.37
2023-02-12T03:11:20.636Z,8.36
2023-02-12T03:12:20.639Z,8.37
2023-02-12T03:13:20.561Z,8.36
2023-02-12T03:14:20.543Z,8.41
2023-02-12T03:15:20.602Z,8.41
2023-02-12T03:16:20.608Z,8.34
2023-02-12T03:17:20.441Z,8.34
2023-02-12T03:18:20.419Z,8.44
2023-02-12T03:19:20.403Z,8.33
2023-02-12T03:20:20.358Z,8.36
2023-02-12T03:21:20.317Z,8.36
2023-02-12T03:22:20.342Z,8.34
2023-02-12T03:23:20.251Z,8.36
2023-02-12T03:24:20.258Z,8.28
2023-02-12T03:25:20.200Z,8.33
2023-02-12T03:26:20.162Z,8.28
2023-02-12T03:27:20.125Z,8.27
2023-02-12T03:28:20.443Z,8.33
2023-02-12T03:29:20.090Z,8.36
2023-02-12T03:30:20.055Z,8.36
2023-02-12T03:31:20.191Z,8.33
2023-02-12T03:32:19.982Z,8.24
2023-02-12T03:33:19.960Z,8.31
2023-02-12T03:34:19.933Z,8.26
2023-02-12T03:35:19.919Z,8.34
2023-02-12T03:36:19.866Z,8.26
2023-02-12T03:37:19.846Z,8.33
2023-02-12T03:38:19.819Z,8.3
2023-02-12T03:39:19.785Z,8.33
2023-02-12T03:40:19.733Z,8.31
2023-02-12T03:41:19.702Z,8.31
2023-02-12T03:42:19.433Z,8.41
2023-02-12T03:43:19.620Z,8.36
2023-02-12T03:44:19.656Z,8.3
2023-02-12T03:45:19.379Z,8.36
2023-02-12T03:46:19.711Z,8.36
2023-02-12T03:47:19.504Z,8.41
2023-02-12T03:48:19.475Z,8.26
2023-02-12T03:49:19.450Z,8.27
2023-02-12T03:50:19.429Z,8.3
2023-02-12T03:51:19.416Z,8.33
2023-02-12T03:52:19.383Z,8.28
2023-02-12T03:53:19.324Z,8.33
2023-02-12T03:54:19.312Z,8.33
2023-02-12T03:55:19.287Z,8.3
2023-02-12T03:56:19.215Z,8.24
2023-02-12T03:57:19.188Z,8.26
2023-02-12T03:58:19.151Z,8.2
2023-02-12T03:59:19.121Z,8.3
2023-02-12T04:00:19.138Z,8.31
2023-02-12T04:01:19.385Z,8.18
2023-02-12T04:02:19.276Z,8.31
2023-02-12T04:03:19.012Z,8.31
2023-02-12T04:04:19.189Z,8.2
2023-02-12T04:05:18.966Z,8.3
2023-02-12T04:06:18.902Z,8.3
2023-02-12T04:07:18.929Z,8.3
2023-02-12T04:08:18.844Z,8.23
2023-02-12T04:09:18.829Z,8.27
2023-02-12T04:10:18.997Z,8.24
2023-02-12T04:11:18.743Z,8.27
2023-02-12T04:12:18.714Z,8.23
2023-02-12T04:13:18.683Z,8.26
2023-02-12T04:14:18.672Z,8.26
2023-02-12T04:15:18.757Z,8.24
2023-02-12T04:16:19.544Z,8.18
2023-02-12T04:17:18.916Z,8.24
2023-02-12T04:18:18.611Z,8.24
2023-02-12T04:19:18.514Z,8.24
2023-02-12T04:20:18.475Z,8.26
2023-02-12T04:21:18.225Z,8.31
2023-02-12T04:22:18.548Z,8.2
2023-02-12T04:23:18.397Z,8.23
2023-02-12T04:24:18.332Z,8.2
2023-02-12T04:25:18.310Z,8.2
2023-02-12T04:26:18.313Z,8.16
2023-02-12T04:27:18.263Z,8.23
2023-02-12T04:28:18.326Z,8.2
2023-02-12T04:29:18.192Z,8.26
2023-02-12T04:30:18.139Z,8.27
2023-02-12T04:31:18.498Z,8.2
2023-02-12T04:32:18.113Z,8.26
2023-02-12T04:33:18.053Z,8.26
2023-02-12T04:34:18.047Z,8.23
2023-02-12T04:35:17.987Z,8.23
2023-02-12T04:36:17.991Z,8.26
2023-02-12T04:37:17.937Z,8.27
2023-02-12T04:38:17.900Z,8.3
2023-02-12T04:39:17.901Z,8.33
2023-02-12T04:40:17.964Z,8.24
2023-02-12T04:41:17.818Z,8.33
2023-02-12T04:42:17.799Z,8.33
2023-02-12T04:43:17.739Z,8.26
2023-02-12T04:44:17.727Z,8.33
2023-02-12T04:45:17.682Z,8.27
2023-02-12T04:46:17.571Z,8.31
2023-02-12T04:47:17.670Z,8.31
2023-02-12T04:48:17.378Z,8.3
2023-02-12T04:49:17.555Z,8.36
2023-02-12T04:50:17.527Z,8.3
2023-02-12T04:51:17.498Z,8.37
2023-02-12T04:52:17.471Z,8.37
2023-02-12T04:53:17.447Z,8.36
2023-02-12T04:54:17.459Z,8.3
2023-02-12T04:55:17.407Z,8.33
2023-02-12T04:56:17.348Z,8.31
2023-02-12T04:57:17.336Z,8.3
2023-02-12T04:58:17.306Z,8.31
2023-02-12T04:59:17.254Z,8.36
2023-02-12T05:00:17.228Z,8.36
2023-02-12T05:01:17.483Z,8.34
2023-02-12T05:02:17.149Z,8.37
2023-02-12T05:03:17.116Z,8.3
2023-02-12T05:04:17.137Z,8.41
2023-02-12T05:05:17.242Z,8.41
2023-02-12T05:06:17.032Z,8.34
2023-02-12T05:07:16.996Z,8.36
2023-02-12T05:08:16.949Z,8.41
2023-02-12T05:09:16.955Z,8.38
2023-02-12T05:10:16.656Z,8.41
2023-02-12T05:11:16.892Z,8.42
2023-02-12T05:12:16.824Z,8.37
2023-02-12T05:13:16.554Z,8.37
2023-02-12T05:14:16.854Z,8.34
2023-02-12T05:15:16.738Z,8.31
2023-02-12T05:16:16.857Z,8.33
2023-02-12T05:17:16.705Z,8.38
2023-02-12T05:18:16.642Z,8.3
2023-02-12T05:19:16.655Z,8.33
2023-02-12T05:20:16.612Z,8.36
2023-02-12T05:21:16.542Z,8.44
2023-02-12T05:22:16.514Z,8.41
2023-02-12T05:23:16.508Z,8.33
2023-02-12T05:24:16.459Z,8.33
2023-02-12T05:25:16.498Z,8.28
2023-02-12T05:26:16.392Z,8.31
2023-02-12T05:27:16.399Z,8.37
2023-02-12T05:28:16.520Z,8.33
2023-02-12T05:29:16.319Z,8.36
2023-02-12T05:30:16.329Z,8.42
2023-02-12T05:31:17.771Z,8.37
2023-02-12T05:32:16.573Z,8.33
2023-02-12T05:33:16.172Z,8.44
2023-02-12T05:34:16.161Z,8.37
2023-02-12T05:35:16.100Z,8.36
2023-02-12T05:36:16.123Z,8.33
2023-02-12T05:37:16.041Z,8.38
2023-02-12T05:38:16.041Z,8.45
2023-02-12T05:39:15.990Z,8.45
2023-02-12T05:40:15.965Z,8.46
2023-02-12T05:41:15.933Z,8.46
2023-02-12T05:42:15.894Z,8.31
2023-02-12T05:43:15.888Z,8.41
2023-02-12T05:44:15.580Z,8.38
2023-02-12T05:45:15.792Z,8.42
2023-02-12T05:46:15.896Z,8.42
2023-02-12T05:47:15.765Z,8.36
2023-02-12T05:48:15.690Z,8.42
2023-02-12T05:49:15.669Z,8.38
2023-02-12T05:50:15.629Z,8.45
2023-02-12T05:51:15.610Z,8.37
2023-02-12T05:52:15.614Z,8.37
2023-02-12T05:53:15.548Z,8.34
2023-02-12T05:54:15.513Z,8.42
2023-02-12T05:55:15.499Z,8.31
2023-02-12T05:56:15.460Z,8.36
2023-02-12T05:57:15.421Z,8.33
2023-02-12T05:58:18.386Z,8.38
2023-02-12T05:59:15.403Z,8.34
2023-02-12T06:00:15.321Z,8.37
2023-02-12T06:01:15.297Z,8.41
2023-02-12T06:02:15.362Z,8.33
2023-02-12T06:03:15.220Z,8.34
2023-02-12T06:04:15.655Z,8.37
2023-02-12T06:05:15.162Z,8.36
2023-02-12T06:06:15.124Z,8.27
2023-02-12T06:07:15.112Z,8.37
2023-02-12T06:08:15.089Z,8.3
2023-02-12T06:09:15.052Z,8.3
2023-02-12T06:10:15.053Z,8.36
2023-02-12T06:11:14.966Z,8.36
2023-02-12T06:12:14.936Z,8.34
2023-02-12T06:13:14.914Z,8.36
2023-02-12T06:14:14.874Z,8.33
2023-02-12T06:15:14.901Z,8.44
2023-02-12T06:16:14.981Z,8.34
2023-02-12T06:17:14.790Z,8.34
2023-02-12T06:18:14.555Z,8.33
2023-02-12T06:19:14.715Z,8.34
2023-02-12T06:20:14.691Z,8.3
2023-02-12T06:21:14.657Z,8.44
2023-02-12T06:22:14.622Z,8.38
2023-02-12T06:23:14.597Z,8.37
2023-02-12T06:24:14.605Z,8.33
2023-02-12T06:25:14.542Z,8.42
2023-02-12T06:26:14.510Z,8.31
2023-02-12T06:27:14.467Z,8.33
2023-02-12T06:28:14.810Z,8.38
2023-02-12T06:29:14.412Z,8.34
2023-02-12T06:30:14.379Z,8.36
2023-02-12T06:31:14.740Z,8.3
2023-02-12T06:32:14.636Z,8.37
2023-02-12T06:33:14.280Z,8.34
2023-02-12T06:34:14.304Z,8.3
2023-02-12T06:35:14.230Z,8.33
2023-02-12T06:36:14.206Z,8.37
2023-02-12T06:37:14.152Z,8.33
2023-02-12T06:38:14.170Z,8.33
2023-02-12T06:39:14.098Z,8.3
2023-02-12T06:40:14.093Z,8.37
2023-02-12T06:41:14.133Z,8.37
2023-02-12T06:42:14.032Z,8.41
2023-02-12T06:43:13.980Z,8.38
2023-02-12T06:44:13.942Z,8.41
2023-02-12T06:45:13.908Z,8.31
2023-02-12T06:46:14.018Z,8.37
2023-02-12T06:47:13.884Z,8.3
2023-02-12T06:48:13.815Z,8.36
2023-02-12T06:49:13.782Z,8.38
2023-02-12T06:50:13.797Z,8.27
2023-02-12T06:51:13.731Z,8.33
2023-02-12T06:52:13.694Z,8.3
2023-02-12T06:53:13.656Z,8.31
2023-02-12T06:54:13.628Z,8.3
2023-02-12T06:55:13.601Z,8.33
2023-02-12T06:56:13.763Z,8.3
2023-02-12T06:57:13.534Z,8.24
2023-02-12T06:58:13.498Z,8.2
2023-02-12T06:59:13.466Z,8.24
2023-02-12T07:00:13.465Z,8.28
2023-02-12T07:01:13.741Z,8.28
2023-02-12T07:02:13.376Z,8.27
2023-02-12T07:03:13.377Z,8.3
2023-02-12T07:04:13.746Z,8.27
2023-02-12T07:05:13.377Z,8.33
2023-02-12T07:06:13.319Z,8.3
2023-02-12T07:07:13.226Z,8.27
2023-02-12T07:08:13.193Z,8.33
2023-02-12T07:09:13.179Z,8.27
2023-02-12T07:10:13.148Z,8.31
2023-02-12T07:11:13.154Z,8.33
2023-02-12T07:12:13.107Z,8.33
2023-02-12T07:13:13.026Z,8.2
2023-02-12T07:14:13.007Z,8.31
2023-02-12T07:15:12.973Z,8.3
2023-02-12T07:16:13.173Z,8.34
2023-02-12T07:17:12.905Z,8.3
2023-02-12T07:18:12.872Z,8.34
2023-02-12T07:19:12.878Z,8.37
2023-02-12T07:20:12.806Z,8.33
2023-02-12T07:21:12.825Z,8.45
2023-02-12T07:22:12.773Z,8.44
2023-02-12T07:23:12.714Z,8.45
2023-02-12T07:24:12.780Z,8.44
2023-02-12T07:25:12.663Z,8.45
2023-02-12T07:26:12.659Z,8.49
2023-02-12T07:27:12.643Z,8.51
2023-02-12T07:28:12.701Z,8.46
2023-02-12T07:29:12.530Z,8.53
2023-02-12T07:30:12.564Z,8.48
2023-02-12T07:31:13.162Z,8.53
2023-02-12T07:32:12.840Z,8.44
2023-02-12T07:33:12.165Z,8.46
2023-02-12T07:34:12.384Z,8.49
2023-02-12T07:35:12.375Z,8.53
2023-02-12T07:36:12.075Z,8.61
2023-02-12T07:37:12.337Z,8.61
2023-02-12T07:38:12.269Z,8.61
2023-02-12T07:39:12.225Z,8.58
2023-02-12T07:40:12.199Z,8.67
2023-02-12T07:41:15.222Z,8.74
2023-02-12T07:42:12.131Z,8.66
2023-02-12T07:43:12.090Z,8.7
2023-02-12T07:44:11.886Z,8.69
2023-02-12T07:45:12.023Z,8.79
2023-02-12T07:46:12.300Z,8.73
2023-02-12T07:47:11.974Z,8.84
2023-02-12T07:48:11.946Z,8.78
2023-02-12T07:49:11.907Z,8.81
2023-02-12T07:50:11.877Z,8.82
2023-02-12T07:51:11.882Z,8.85
2023-02-12T07:52:14.619Z,8.89
2023-02-12T07:53:11.783Z,8.92
2023-02-12T07:54:11.653Z,8.94
2023-02-12T07:55:11.721Z,8.97
2023-02-12T07:56:11.458Z,9.1
2023-02-12T07:57:11.669Z,9.06
2023-02-12T07:58:11.630Z,9.04
2023-02-12T07:59:11.597Z,9.08
2023-02-12T08:00:11.606Z,9.04
2023-02-12T08:01:11.553Z,9.11
2023-02-12T08:02:11.790Z,9.14
2023-02-12T08:03:11.478Z,9.14
2023-02-12T08:04:11.740Z,9.21
2023-02-12T08:05:11.428Z,9.23
2023-02-12T08:06:11.476Z,9.22
2023-02-12T08:07:11.467Z,9.25
2023-02-12T08:08:11.318Z,9.28
2023-02-12T08:09:11.290Z,9.31
2023-02-12T08:10:11.312Z,9.34
2023-02-12T08:11:11.233Z,9.29
2023-02-12T08:12:11.205Z,9.36
2023-02-12T08:13:10.928Z,9.36
2023-02-12T08:14:11.148Z,9.29
2023-02-12T08:15:11.122Z,9.31
2023-02-12T08:16:11.316Z,9.39
2023-02-12T08:17:11.042Z,9.37
2023-02-12T08:18:11.020Z,9.4
2023-02-12T08:19:26.974Z,9.37
2023-02-12T08:20:10.960Z,9.43
2023-02-12T08:21:10.941Z,9.36
2023-02-12T08:22:10.896Z,9.32
2023-02-12T08:23:16.855Z,9.37
2023-02-12T08:24:10.878Z,9.4
2023-02-12T08:25:10.812Z,9.34
2023-02-12T08:26:10.808Z,9.48
2023-02-12T08:27:10.743Z,9.48
2023-02-12T08:28:10.871Z,9.54
2023-02-12T08:29:10.693Z,9.54
2023-02-12T08:30:10.663Z,9.46
2023-02-12T08:31:10.817Z,9.48
2023-02-12T08:32:10.927Z,9.47
2023-02-12T08:33:10.568Z,9.47
2023-02-12T08:34:10.543Z,9.48
2023-02-12T08:35:10.500Z,9.44
2023-02-12T08:36:10.542Z,9.48
2023-02-12T08:37:10.503Z,9.44
2023-02-12T08:38:10.436Z,9.39
2023-02-12T08:39:10.414Z,9.41
2023-02-12T08:40:10.392Z,9.37
2023-02-12T08:41:10.447Z,9.41
2023-02-12T08:42:10.344Z,9.39
2023-02-12T08:43:10.265Z,9.44
2023-02-12T08:44:10.255Z,9.39
2023-02-12T08:45:10.210Z,9.37
2023-02-12T08:46:10.415Z,9.4
2023-02-12T08:47:10.203Z,9.41
2023-02-12T08:48:10.146Z,9.48
2023-02-12T08:49:10.119Z,9.41
2023-02-12T08:50:10.053Z,9.47
2023-02-12T08:51:10.054Z,9.51
2023-02-12T08:52:10.002Z,9.46
2023-02-12T08:53:09.971Z,9.44
2023-02-12T08:54:09.948Z,9.55
2023-02-12T08:55:09.915Z,9.54
2023-02-12T08:56:09.899Z,9.56
2023-02-12T08:57:09.890Z,9.61
2023-02-12T08:58:09.860Z,9.58
2023-02-12T08:59:09.791Z,9.62
2023-02-12T09:00:09.535Z,9.58
2023-02-12T09:01:09.919Z,9.61
2023-02-12T09:02:09.930Z,9.65
2023-02-12T09:03:09.671Z,9.64
2023-02-12T09:04:09.687Z,9.58
2023-02-12T09:05:09.612Z,9.56
2023-02-12T09:06:09.579Z,9.58
2023-02-12T09:07:12.996Z,9.66
2023-02-12T09:08:09.534Z,9.72
2023-02-12T09:09:09.518Z,9.74
2023-02-12T09:10:09.461Z,9.72
2023-02-12T09:11:09.458Z,9.68
2023-02-12T09:12:09.418Z,9.66
2023-02-12T09:13:09.378Z,9.65
2023-02-12T09:14:09.366Z,9.66
2023-02-12T09:15:09.304Z,9.68
2023-02-12T09:16:09.300Z,9.68
2023-02-12T09:17:09.527Z,9.72
2023-02-12T09:18:09.224Z,9.66
2023-02-12T09:19:09.220Z,9.72
2023-02-12T09:20:09.203Z,9.74
2023-02-12T09:21:09.131Z,9.66
2023-02-12T09:22:09.213Z,9.74
2023-02-12T09:23:09.068Z,9.74
2023-02-12T09:24:09.050Z,9.72
2023-02-12T09:25:09.008Z,9.77
2023-02-12T09:26:08.985Z,9.77
2023-02-12T09:27:08.962Z,9.79
2023-02-12T09:28:09.021Z,9.8
2023-02-12T09:29:08.904Z,9.89
2023-02-12T09:30:08.902Z,9.94
2023-02-12T09:31:09.348Z,9.89
2023-02-12T09:32:08.980Z,9.91
2023-02-12T09:33:08.787Z,9.86
2023-02-12T09:34:08.796Z,9.91
2023-02-12T09:35:08.724Z,10.01
2023-02-12T09:36:08.746Z,9.95
2023-02-12T09:37:08.663Z,10.02
2023-02-12T09:38:08.399Z,9.92
2023-02-12T09:39:08.612Z,9.94
2023-02-12T09:40:08.605Z,10.01
2023-02-12T09:41:08.545Z,9.98
2023-02-12T09:42:08.513Z,9.97
2023-02-12T09:43:08.485Z,9.99
2023-02-12T09:44:08.488Z,9.94
2023-02-12T09:45:08.420Z,9.95
2023-02-12T09:46:08.503Z,10.04
2023-02-12T09:47:08.252Z,9.94
2023-02-12T09:48:08.336Z,9.92
2023-02-12T09:49:08.311Z,9.95
2023-02-12T09:50:08.285Z,9.91
2023-02-12T09:51:08.264Z,9.82
2023-02-12T09:52:08.264Z,9.89
2023-02-12T09:53:08.228Z,9.94
2023-02-12T09:54:08.175Z,9.92
2023-02-12T09:55:08.136Z,9.92
2023-02-12T09:56:08.128Z,9.91
2023-02-12T09:57:08.095Z,9.91
2023-02-12T09:58:08.063Z,9.99
2023-02-12T09:59:08.034Z,9.95
2023-02-12T10:00:08.059Z,10.09
2023-02-12T10:01:08.101Z,10.15
2023-02-12T10:02:07.963Z,10.19
2023-02-12T10:03:10.245Z,10.22
2023-02-12T10:04:08.125Z,10.33
2023-02-12T10:05:08.211Z,10.28
2023-02-12T10:06:07.865Z,10.26
2023-02-12T10:07:07.792Z,10.3
2023-02-12T10:08:07.787Z,10.34
2023-02-12T10:09:07.734Z,10.3
2023-02-12T10:10:10.329Z,10.35
2023-02-12T10:11:07.667Z,10.42
2023-02-12T10:12:07.641Z,10.46
2023-02-12T10:13:07.376Z,10.48
2023-02-12T10:14:07.605Z,10.44
2023-02-12T10:15:07.314Z,10.42
2023-02-12T10:16:07.760Z,10.56
2023-02-12T10:17:07.520Z,10.56
2023-02-12T10:18:07.498Z,10.61
2023-02-12T10:19:07.438Z,10.71
2023-02-12T10:20:07.461Z,10.67
2023-02-12T10:21:07.402Z,10.71
2023-02-12T10:22:07.363Z,10.67
2023-02-12T10:23:07.351Z,10.72
2023-02-12T10:24:07.381Z,10.78
2023-02-12T10:25:07.329Z,10.76
2023-02-12T10:26:07.258Z,10.86
2023-02-12T10:27:07.217Z,10.87
2023-02-12T10:28:07.373Z,10.9
2023-02-12T10:29:07.318Z,10.97
2023-02-12T10:30:07.128Z,11.04
2023-02-12T10:31:07.518Z,11.02
2023-02-12T10:32:07.170Z,10.99
2023-02-12T10:33:07.058Z,10.99
2023-02-12T10:34:07.073Z,11
2023-02-12T10:35:06.992Z,10.84
2023-02-12T10:36:06.975Z,10.86
2023-02-12T10:37:06.930Z,10.9
2023-02-12T10:38:06.908Z,10.87
2023-02-12T10:39:06.878Z,10.75
2023-02-12T10:40:06.888Z,10.76
2023-02-12T10:41:06.944Z,10.74
2023-02-12T10:42:06.798Z,10.76
2023-02-12T10:43:07.240Z,10.84
2023-02-12T10:44:07.221Z,10.87
2023-02-12T10:45:06.714Z,10.86
2023-02-12T10:46:06.827Z,10.79
2023-02-12T10:47:06.750Z,10.82
2023-02-12T10:48:06.643Z,10.81
2023-02-12T10:49:06.602Z,10.74
2023-02-12T10:50:06.915Z,10.79
2023-02-12T10:51:06.536Z,10.71
2023-02-12T10:52:06.528Z,10.69
2023-02-12T10:53:06.485Z,10.74
2023-02-12T10:54:07.796Z,10.71
2023-02-12T10:55:06.425Z,10.67
2023-02-12T10:56:06.420Z,10.69
2023-02-12T10:57:06.382Z,10.71
2023-02-12T10:58:06.357Z,10.68
2023-02-12T10:59:06.357Z,10.61
2023-02-12T11:00:06.301Z,10.79
2023-02-12T11:01:06.320Z,10.75
2023-02-12T11:02:06.507Z,10.82
2023-02-12T11:03:06.249Z,10.78
2023-02-12T11:04:12.213Z,10.92
2023-02-12T11:05:06.538Z,10.96
2023-02-12T11:06:06.178Z,10.94
2023-02-12T11:07:06.169Z,11
2023-02-12T11:08:06.053Z,11.05
2023-02-12T11:09:06.045Z,11.1
2023-02-12T11:10:05.919Z,11.25
2023-02-12T11:11:05.981Z,11.22
2023-02-12T11:12:06.025Z,11.26
2023-02-12T11:13:05.938Z,11.33
2023-02-12T11:14:05.921Z,11.36
2023-02-12T11:15:05.901Z,11.54
2023-02-12T11:16:06.217Z,11.45
2023-02-12T11:17:05.813Z,11.48
2023-02-12T11:18:07.873Z,11.45
2023-02-12T11:19:05.832Z,11.48
2023-02-12T11:20:05.731Z,11.44
2023-02-12T11:21:05.838Z,11.33
2023-02-12T11:22:05.704Z,11.47
2023-02-12T11:23:05.689Z,11.51
2023-02-12T11:24:07.443Z,11.47
2023-02-12T11:25:05.669Z,11.5
2023-02-12T11:26:05.343Z,11.51
2023-02-12T11:27:05.537Z,11.52
2023-02-12T11:28:05.907Z,11.57
2023-02-12T11:29:05.863Z,11.55
2023-02-12T11:30:05.464Z,11.52
2023-02-12T11:31:05.866Z,11.44
2023-02-12T11:32:05.598Z,11.5
2023-02-12T11:33:05.377Z,11.4
2023-02-12T11:34:05.374Z,11.52
2023-02-12T11:35:05.323Z,11.41
2023-02-12T11:36:09.725Z,11.51
2023-02-12T11:37:05.397Z,11.44
2023-02-12T11:38:05.286Z,11.44
2023-02-12T11:39:05.227Z,11.5
2023-02-12T11:40:05.185Z,11.45
2023-02-12T11:41:05.184Z,11.62
2023-02-12T11:42:05.156Z,11.59
2023-02-12T11:43:05.108Z,11.68
2023-02-12T11:44:05.106Z,11.55
2023-02-12T11:45:05.222Z,11.6
2023-02-12T11:46:05.283Z,11.57
2023-02-12T11:47:05.133Z,11.51
2023-02-12T11:48:04.984Z,11.48
2023-02-12T11:49:04.939Z,11.47
2023-02-12T11:50:04.922Z,11.47
2023-02-12T11:51:04.900Z,11.32
2023-02-12T11:52:04.866Z,11.41
2023-02-12T11:53:04.616Z,11.32
2023-02-12T11:54:04.897Z,11.37
2023-02-12T11:55:04.792Z,11.25
2023-02-12T11:56:05.893Z,11.17
2023-02-12T11:57:04.728Z,11.12
2023-02-12T11:58:04.705Z,11.1
2023-02-12T11:59:04.667Z,11.22
2023-02-12T12:00:04.688Z,11.26
2023-02-12T12:01:04.655Z,11.3
2023-02-12T12:02:04.511Z,11.4
2023-02-12T12:03:04.773Z,11.45
2023-02-12T12:04:04.574Z,11.35
2023-02-12T12:05:04.520Z,11.47
2023-02-12T12:06:04.485Z,11.54
2023-02-12T12:07:04.567Z,11.48
2023-02-12T12:08:04.484Z,11.59
2023-02-12T12:09:04.422Z,11.52
2023-02-12T12:10:04.175Z,11.48
2023-02-12T12:11:04.138Z,11.55
2023-02-12T12:12:04.325Z,11.51
2023-02-12T12:13:04.276Z,11.47
2023-02-12T12:14:04.262Z,11.32
2023-02-12T12:15:04.251Z,11.37
2023-02-12T12:16:04.320Z,11.32
2023-02-12T12:17:04.186Z,11.23
2023-02-12T12:18:04.143Z,11.32
2023-02-12T12:19:04.120Z,11.15
2023-02-12T12:20:04.113Z,11.22
2023-02-12T12:21:04.068Z,11.15
2023-02-12T12:22:04.038Z,11.29
2023-02-12T12:23:04.000Z,11.36
2023-02-12T12:24:04.003Z,11.36
2023-02-12T12:25:06.187Z,11.43
2023-02-12T12:26:03.965Z,11.57
2023-02-12T12:27:03.902Z,11.5
2023-02-12T12:28:04.095Z,11.44
2023-02-12T12:29:03.858Z,11.47
2023-02-12T12:30:03.814Z,11.35
2023-02-12T12:31:03.942Z,11.37
2023-02-12T12:32:04.015Z,11.32
2023-02-12T12:33:03.737Z,11.41
2023-02-12T12:34:03.707Z,11.37
2023-02-12T12:35:03.678Z,11.4
2023-02-12T12:36:04.030Z,11.33
2023-02-12T12:37:03.644Z,11.3
2023-02-12T12:38:03.624Z,11.26
2023-02-12T12:39:03.622Z,11.15
2023-02-12T12:40:03.633Z,11.18
2023-02-12T12:41:03.574Z,11.19
2023-02-12T12:42:03.513Z,11.1
2023-02-12T12:43:03.268Z,11.23
2023-02-12T12:44:03.440Z,11.22
2023-02-12T12:45:03.419Z,11.19
2023-02-12T12:46:04.440Z,11.35
2023-02-12T12:47:03.349Z,11.36
2023-02-12T12:48:03.399Z,11.32
2023-02-12T12:49:03.297Z,11.29
2023-02-12T12:50:03.269Z,11.35
2023-02-12T12:51:03.238Z,11.27
2023-02-12T12:52:03.225Z,11.17
2023-02-12T12:53:03.196Z,11.23
2023-02-12T12:54:03.159Z,11.19
2023-02-12T12:55:03.160Z,11.1
2023-02-12T12:56:03.535Z,11.12
2023-02-12T12:57:02.871Z,11.08
2023-02-12T12:58:02.869Z,11.22
2023-02-12T12:59:03.019Z,11.11
2023-02-12T13:00:02.991Z,11.23
2023-02-12T13:01:03.282Z,11.19
2023-02-12T13:02:03.174Z,11.1
2023-02-12T13:03:02.904Z,11.04
2023-02-12T13:04:02.972Z,11
2023-02-12T13:05:02.851Z,10.92
2023-02-12T13:06:03.348Z,10.89
2023-02-12T13:07:02.798Z,10.9
2023-02-12T13:08:02.791Z,10.84
2023-02-12T13:09:02.773Z,10.84
2023-02-12T13:10:02.707Z,10.82
2023-02-12T13:11:02.673Z,10.89
2023-02-12T13:12:02.647Z,10.81
2023-02-12T13:13:02.648Z,10.84
2023-02-12T13:14:02.624Z,10.84